DQA102 VRMM-VRMD
Flight info
| Callsign | DQA102 |
|---|---|
| Flight time | 0h 27m |
| Altitude | 5000 |
| Route | PILIK1A PILIK DCT BEKEB |
| Aircraft | C208/L-SDFGR/C |
Departure
| Time | 2026-04-26 17:03 |
|---|---|
| Airport | Velana International Airport (VRMM) |
Arrival
| Time | 2026-04-26 17:31 |
|---|---|
| Airport | Dharavandhoo Airport (VRMD) |
| Time | Latitude | Longitude | Altitude | Speed | Heading |
|---|---|---|---|---|---|
| 2026-04-26 16:52 | 4.19781 | 73.52813 | 9 ft | 0 kts | 96° |
| 2026-04-26 16:57 | 4.19747 | 73.52796 | 9 ft | 9 kts | 177° |
| 2026-04-26 16:58 | 4.19698 | 73.52847 | 9 ft | 16 kts | 92° |
| 2026-04-26 16:58 | 4.19695 | 73.52879 | 9 ft | 1 kts | 112° |
| 2026-04-26 16:58 | 4.19519 | 73.52908 | 9 ft | 21 kts | 178° |
| 2026-04-26 16:59 | 4.19351 | 73.52913 | 9 ft | 26 kts | 178° |
| 2026-04-26 16:59 | 4.19076 | 73.52915 | 10 ft | 18 kts | 179° |
| 2026-04-26 17:00 | 4.18876 | 73.52921 | 10 ft | 16 kts | 178° |
| 2026-04-26 17:00 | 4.18578 | 73.52926 | 10 ft | 25 kts | 180° |
| 2026-04-26 17:00 | 4.18518 | 73.52936 | 9 ft | 6 kts | 41° |
| 2026-04-26 17:01 | 4.18550 | 73.52991 | 10 ft | 6 kts | 94° |
| 2026-04-26 17:01 | 4.18549 | 73.53013 | 10 ft | 7 kts | 91° |
| 2026-04-26 17:01 | 4.18558 | 73.53092 | 10 ft | 16 kts | 52° |
| 2026-04-26 17:01 | 4.18627 | 73.53101 | 10 ft | 2 kts | 359° |
| 2026-04-26 17:02 | 4.18750 | 73.53099 | 11 ft | 39 kts | 360° |
| 2026-04-26 17:02 | 4.19162 | 73.53098 | 11 ft | 78 kts | 360° |
| 2026-04-26 17:02 | 4.19792 | 73.53094 | 58 ft | 99 kts | 359° |
| 2026-04-26 17:02 | 4.20505 | 73.53053 | 171 ft | 108 kts | 354° |
| 2026-04-26 17:03 | 4.21282 | 73.52997 | 285 ft | 115 kts | 355° |
| 2026-04-26 17:03 | 4.22085 | 73.52950 | 408 ft | 119 kts | 357° |
| 2026-04-26 17:03 | 4.22918 | 73.53001 | 548 ft | 120 kts | 4° |
| 2026-04-26 17:03 | 4.23750 | 73.53053 | 699 ft | 119 kts | 1° |
| 2026-04-26 17:04 | 4.24566 | 73.53076 | 843 ft | 115 kts | 0° |
| 2026-04-26 17:04 | 4.25360 | 73.53084 | 984 ft | 113 kts | 359° |
| 2026-04-26 17:04 | 4.26137 | 73.53087 | 1117 ft | 111 kts | 359° |
| 2026-04-26 17:04 | 4.26912 | 73.53089 | 1239 ft | 113 kts | 359° |
| 2026-04-26 17:05 | 4.27709 | 73.53088 | 1370 ft | 116 kts | 359° |
| 2026-04-26 17:05 | 4.28510 | 73.53087 | 1499 ft | 117 kts | 359° |
| 2026-04-26 17:05 | 4.29331 | 73.53087 | 1629 ft | 119 kts | 359° |
| 2026-04-26 17:05 | 4.30161 | 73.53087 | 1758 ft | 119 kts | 359° |
| 2026-04-26 17:06 | 4.30994 | 73.53086 | 1886 ft | 120 kts | 359° |
| 2026-04-26 17:06 | 4.31830 | 73.53086 | 2013 ft | 121 kts | 359° |
| 2026-04-26 17:06 | 4.32669 | 73.53086 | 2140 ft | 121 kts | 359° |
| 2026-04-26 17:06 | 4.33512 | 73.53086 | 2266 ft | 121 kts | 359° |
| 2026-04-26 17:07 | 4.34348 | 73.53085 | 2392 ft | 121 kts | 359° |
| 2026-04-26 17:07 | 4.35194 | 73.53084 | 2516 ft | 121 kts | 359° |
| 2026-04-26 17:07 | 4.36037 | 73.53083 | 2640 ft | 121 kts | 359° |
| 2026-04-26 17:07 | 4.36881 | 73.53082 | 2764 ft | 121 kts | 359° |
| 2026-04-26 17:08 | 4.37724 | 73.53084 | 2889 ft | 121 kts | 359° |
| 2026-04-26 17:08 | 4.38568 | 73.53082 | 3013 ft | 121 kts | 359° |
| 2026-04-26 17:08 | 4.39413 | 73.53080 | 3138 ft | 121 kts | 359° |
| 2026-04-26 17:08 | 4.40274 | 73.53079 | 3240 ft | 128 kts | 359° |
| 2026-04-26 17:09 | 4.41179 | 73.53079 | 3358 ft | 134 kts | 359° |
| 2026-04-26 17:09 | 4.41820 | 73.53079 | 3445 ft | 138 kts | 360° |
| 2026-04-26 17:09 | 4.43094 | 73.52908 | 3624 ft | 143 kts | 347° |
| 2026-04-26 17:09 | 4.44082 | 73.52707 | 3757 ft | 144 kts | 349° |
| 2026-04-26 17:10 | 4.45055 | 73.52517 | 3883 ft | 142 kts | 349° |
| 2026-04-26 17:10 | 4.46032 | 73.52325 | 4013 ft | 144 kts | 349° |
| 2026-04-26 17:10 | 4.47003 | 73.52132 | 4136 ft | 144 kts | 349° |
| 2026-04-26 17:10 | 4.47970 | 73.51942 | 4371 ft | 138 kts | 349° |
| 2026-04-26 17:11 | 4.48899 | 73.51758 | 4610 ft | 133 kts | 349° |
| 2026-04-26 17:11 | 4.49801 | 73.51581 | 4847 ft | 130 kts | 349° |
| 2026-04-26 17:11 | 4.50683 | 73.51408 | 4984 ft | 135 kts | 349° |
| 2026-04-26 17:11 | 4.51649 | 73.51220 | 4998 ft | 147 kts | 349° |
| 2026-04-26 17:12 | 4.53761 | 73.50807 | 5000 ft | 161 kts | 349° |
| 2026-04-26 17:12 | 4.54878 | 73.50586 | 4998 ft | 165 kts | 349° |
| 2026-04-26 17:13 | 4.57157 | 73.50138 | 5001 ft | 168 kts | 349° |
| 2026-04-26 17:13 | 4.58310 | 73.49910 | 4997 ft | 169 kts | 349° |
| 2026-04-26 17:13 | 4.60623 | 73.49454 | 4998 ft | 169 kts | 349° |
| 2026-04-26 17:14 | 4.61766 | 73.49229 | 5000 ft | 170 kts | 349° |
| 2026-04-26 17:14 | 4.64028 | 73.48784 | 4984 ft | 161 kts | 349° |
| 2026-04-26 17:14 | 4.65104 | 73.48512 | 4981 ft | 157 kts | 335° |
| 2026-04-26 17:15 | 4.66731 | 73.47112 | 4983 ft | 157 kts | 318° |
| 2026-04-26 17:15 | 4.67527 | 73.46377 | 4985 ft | 157 kts | 318° |
| 2026-04-26 17:15 | 4.68327 | 73.45632 | 4984 ft | 156 kts | 318° |
| 2026-04-26 17:16 | 4.69120 | 73.44890 | 4982 ft | 155 kts | 318° |
| 2026-04-26 17:16 | 4.69912 | 73.44151 | 4980 ft | 154 kts | 318° |
| 2026-04-26 17:16 | 4.70698 | 73.43419 | 4980 ft | 154 kts | 318° |
| 2026-04-26 17:16 | 4.71470 | 73.42699 | 4982 ft | 153 kts | 318° |
| 2026-04-26 17:17 | 4.72250 | 73.41970 | 4981 ft | 153 kts | 317° |
| 2026-04-26 17:17 | 4.73025 | 73.41246 | 4982 ft | 152 kts | 317° |
| 2026-04-26 17:17 | 4.73802 | 73.40522 | 4981 ft | 152 kts | 317° |
| 2026-04-26 17:17 | 4.74571 | 73.39804 | 4982 ft | 151 kts | 317° |
| 2026-04-26 17:18 | 4.75333 | 73.39094 | 4981 ft | 151 kts | 317° |
| 2026-04-26 17:18 | 4.76102 | 73.38377 | 4982 ft | 151 kts | 317° |
| 2026-04-26 17:18 | 4.76870 | 73.37659 | 4982 ft | 151 kts | 317° |
| 2026-04-26 17:18 | 4.77638 | 73.36942 | 4981 ft | 150 kts | 317° |
| 2026-04-26 17:19 | 4.79171 | 73.35513 | 4981 ft | 150 kts | 317° |
| 2026-04-26 17:19 | 4.79935 | 73.34799 | 4981 ft | 150 kts | 317° |
| 2026-04-26 17:19 | 4.80691 | 73.34093 | 4981 ft | 150 kts | 317° |
| 2026-04-26 17:20 | 4.81457 | 73.33380 | 4981 ft | 150 kts | 317° |
| 2026-04-26 17:20 | 4.81962 | 73.32908 | 4980 ft | 149 kts | 317° |
| 2026-04-26 17:20 | 4.82978 | 73.31959 | 4982 ft | 149 kts | 317° |
| 2026-04-26 17:20 | 4.83736 | 73.31252 | 4981 ft | 149 kts | 317° |
| 2026-04-26 17:21 | 4.84495 | 73.30543 | 4982 ft | 149 kts | 317° |
| 2026-04-26 17:21 | 4.85252 | 73.29837 | 4981 ft | 149 kts | 317° |
| 2026-04-26 17:21 | 4.86004 | 73.29136 | 4982 ft | 149 kts | 318° |
| 2026-04-26 17:21 | 4.86774 | 73.28417 | 4904 ft | 153 kts | 318° |
| 2026-04-26 17:22 | 4.87568 | 73.27678 | 4788 ft | 158 kts | 318° |
| 2026-04-26 17:22 | 4.88370 | 73.26929 | 4675 ft | 161 kts | 318° |
| 2026-04-26 17:22 | 4.89186 | 73.26166 | 4554 ft | 159 kts | 318° |
| 2026-04-26 17:22 | 4.89984 | 73.25421 | 4424 ft | 155 kts | 318° |
| 2026-04-26 17:23 | 4.90766 | 73.24688 | 4292 ft | 152 kts | 318° |
| 2026-04-26 17:23 | 4.91536 | 73.23970 | 4161 ft | 150 kts | 318° |
| 2026-04-26 17:23 | 4.92300 | 73.23256 | 4029 ft | 149 kts | 317° |
| 2026-04-26 17:23 | 4.93050 | 73.22556 | 3902 ft | 149 kts | 317° |
| 2026-04-26 17:24 | 4.93913 | 73.22015 | 3767 ft | 147 kts | 345° |
| 2026-04-26 17:24 | 4.94931 | 73.21975 | 3497 ft | 148 kts | 11° |
| 2026-04-26 17:24 | 4.95943 | 73.22199 | 3198 ft | 149 kts | 11° |
| 2026-04-26 17:24 | 4.96985 | 73.22409 | 2803 ft | 155 kts | 11° |
| 2026-04-26 17:25 | 4.98050 | 73.22623 | 2420 ft | 157 kts | 11° |
| 2026-04-26 17:25 | 4.99128 | 73.22841 | 2028 ft | 158 kts | 11° |
| 2026-04-26 17:25 | 5.00204 | 73.23059 | 1710 ft | 154 kts | 11° |
| 2026-04-26 17:25 | 5.01191 | 73.23259 | 1687 ft | 137 kts | 11° |
| 2026-04-26 17:26 | 5.02073 | 73.23433 | 1685 ft | 125 kts | 7° |
| 2026-04-26 17:26 | 5.02880 | 73.23240 | 1686 ft | 117 kts | 337° |
| 2026-04-26 17:26 | 5.03622 | 73.22948 | 1688 ft | 112 kts | 339° |
| 2026-04-26 17:26 | 5.04342 | 73.22669 | 1688 ft | 110 kts | 339° |
| 2026-04-26 17:27 | 5.05048 | 73.22396 | 1677 ft | 109 kts | 339° |
| 2026-04-26 17:27 | 5.05750 | 73.22107 | 1651 ft | 109 kts | 337° |
| 2026-04-26 17:27 | 5.06436 | 73.21802 | 1626 ft | 109 kts | 336° |
| 2026-04-26 17:27 | 5.07125 | 73.21480 | 1607 ft | 109 kts | 334° |
| 2026-04-26 17:28 | 5.07804 | 73.21142 | 1577 ft | 109 kts | 333° |
| 2026-04-26 17:28 | 5.08481 | 73.20792 | 1552 ft | 109 kts | 332° |
| 2026-04-26 17:28 | 5.09150 | 73.20430 | 1523 ft | 109 kts | 331° |
| 2026-04-26 17:28 | 5.09813 | 73.20057 | 1503 ft | 109 kts | 330° |
| 2026-04-26 17:29 | 5.10468 | 73.19674 | 1477 ft | 109 kts | 329° |
| 2026-04-26 17:29 | 5.10898 | 73.19413 | 1460 ft | 109 kts | 329° |
| 2026-04-26 17:29 | 5.11756 | 73.18877 | 1430 ft | 110 kts | 328° |
| 2026-04-26 17:29 | 5.12452 | 73.18394 | 1319 ft | 138 kts | 323° |
| 2026-04-26 17:30 | 5.13194 | 73.17667 | 1075 ft | 153 kts | 311° |
| 2026-04-26 17:30 | 5.13806 | 73.16810 | 561 ft | 152 kts | 303° |
| 2026-04-26 17:30 | 5.14299 | 73.15882 | 117 ft | 142 kts | 292° |
| 2026-04-26 17:30 | 5.14662 | 73.15057 | 119 ft | 128 kts | 297° |
| 2026-04-26 17:31 | 5.15040 | 73.14266 | 139 ft | 117 kts | 293° |
| 2026-04-26 17:31 | 5.15324 | 73.13641 | 46 ft | 83 kts | 296° |
| 2026-04-26 17:31 | 5.15508 | 73.13237 | 9 ft | 33 kts | 282° |
| 2026-04-26 17:31 | 5.15526 | 73.13205 | 10 ft | 9 kts | 109° |
| 2026-04-26 17:32 | 5.15452 | 73.13381 | 9 ft | 29 kts | 114° |
| 2026-04-26 17:32 | 5.15450 | 73.13447 | 9 ft | 5 kts | 23° |
| 2026-04-26 17:32 | 5.15487 | 73.13463 | 10 ft | 0 kts | 21° |